Time;durP1;ratioP1;P1;durP2;ratioP2;P2;SDS_P1;SDS_P2;PMS_P1;PMS_P2;Temp;Humidity;BMP_temperature;BMP_pressure;BME280_temperature;BME280_humidity;BME280_pressure;Samples;Min_cycle;Max_cycle;Signal;HPM_P1;HPM_P2
2021/07/14 00:01:04;;;;;;;;;;;23.40;50.60;;;;;;1561503;75;711;-64
2021/07/14 00:03:06;;;;;;;;;;;23.40;50.60;;;;;;1545061;75;1083;-61
2021/07/14 00:05:08;;;;;;;;;;;23.40;50.70;;;;;;1553501;75;711;-62
2021/07/14 00:07:10;;;;;;;;;;;23.40;50.70;;;;;;1560611;75;715;-61
2021/07/14 00:09:12;;;;;;;;;;;23.40;50.60;;;;;;1554665;75;829;-61
2021/07/14 00:11:14;;;;;;;;;;;23.40;50.60;;;;;;1556462;75;781;-61
2021/07/14 00:22:05;;;;;;;;;;;23.40;50.60;;;;;;1549437;75;1917;-62
2021/07/14 00:22:12;;;;;;;;;;;23.30;50.60;;;;;;1555111;74;1662;-62
2021/07/14 00:24:14;;;;;;;;;;;23.40;50.70;;;;;;1552093;75;722;-62
2021/07/14 00:26:16;;;;;;;;;;;23.40;50.70;;;;;;1551054;75;755;-62
2021/07/14 00:28:18;;;;;;;;;;;23.40;50.60;;;;;;1563860;75;763;-65
2021/07/14 00:30:25;;;;;;;;;;;23.40;50.70;;;;;;1546145;75;717;-63
2021/07/14 00:32:27;;;;;;;;;;;23.40;50.70;;;;;;1546137;75;1677;-63
2021/07/14 00:34:29;;;;;;;;;;;23.40;50.70;;;;;;1548770;75;786;-62
2021/07/14 00:36:31;;;;;;;;;;;23.40;50.60;;;;;;1554080;75;1943;-66
2021/07/14 00:38:33;;;;;;;;;;;23.40;50.70;;;;;;1562143;75;829;-64
2021/07/14 00:40:35;;;;;;;;;;;23.40;50.60;;;;;;1562517;75;737;-65
2021/07/14 00:42:37;;;;;;;;;;;23.40;50.60;;;;;;1554785;75;1096;-61
2021/07/14 00:44:39;;;;;;;;;;;23.40;50.70;;;;;;1561484;75;727;-62
2021/07/14 00:46:41;;;;;;;;;;;23.40;50.60;;;;;;1551403;75;788;-64
2021/07/14 00:48:43;;;;;;;;;;;23.30;50.60;;;;;;1558910;75;861;-61
2021/07/14 00:50:44;;;;;;;;;;;23.40;50.60;;;;;;1553379;75;761;-61
2021/07/14 00:52:46;;;;;;;;;;;23.40;50.70;;;;;;1547172;75;1113;-62
2021/07/14 00:54:48;;;;;;;;;;;23.40;50.70;;;;;;1558300;75;755;-64
2021/07/14 00:56:50;;;;;;;;;;;23.40;50.60;;;;;;1563246;75;1949;-65
2021/07/14 00:58:54;;;;;;;;;;;23.40;50.60;;;;;;1553917;75;795;-65
2021/07/14 01:00:56;;;;;;;;;;;23.40;50.60;;;;;;1552488;75;759;-62
2021/07/14 01:02:57;;;;;;;;;;;23.40;50.60;;;;;;1554755;75;1082;-63
2021/07/14 01:05:04;;;;;;;;;;;23.40;50.60;;;;;;1555100;75;722;-61
2021/07/14 01:07:08;;;;;;;;;;;23.40;50.60;;;;;;1566158;71;219656;-72
2021/07/14 01:09:11;;;;;;;;;;;23.40;50.60;;;;;;1569826;74;737;-72
2021/07/14 01:11:14;;;;;;;;;;;23.40;50.60;;;;;;1561347;74;998;-74
2021/07/14 01:13:22;;;;;;;;;;;23.40;50.60;;;;;;1544679;76;738;-72
2021/07/14 01:15:21;;;;;;;;;;;23.40;50.50;;;;;;1565166;75;1093;-73
2021/07/14 01:17:24;;;;;;;;;;;23.40;50.60;;;;;;1573012;74;1941;-73
2021/07/14 01:19:27;;;;;;;;;;;23.40;50.60;;;;;;1560800;75;732;-73
2021/07/14 01:21:31;;;;;;;;;;;23.30;50.60;;;;;;1561131;75;1576;-72
2021/07/14 01:23:41;;;;;;;;;;;23.30;50.60;;;;;;1562216;75;787;-72
2021/07/14 01:26:01;;;;;;;;;;;23.30;50.60;;;;;;1561268;75;1837;-73
2021/07/14 01:28:03;;;;;;;;;;;23.30;50.60;;;;;;1549501;75;1143;-73
2021/07/14 01:30:10;;;;;;;;;;;23.30;50.60;;;;;;1532165;77;727;-73
2021/07/14 01:32:12;;;;;;;;;;;23.40;50.60;;;;;;1561198;75;1146;-72
2021/07/14 01:34:14;;;;;;;;;;;23.40;50.60;;;;;;1574315;75;742;-72
2021/07/14 01:36:18;;;;;;;;;;;23.30;50.60;;;;;;1552871;75;1930;-72
2021/07/14 01:38:20;;;;;;;;;;;23.40;50.70;;;;;;1556225;75;1150;-73
2021/07/14 01:40:22;;;;;;;;;;;23.30;50.60;;;;;;1548615;75;686;-73
2021/07/14 01:42:24;;;;;;;;;;;23.30;50.60;;;;;;1561298;75;791;-72
2021/07/14 01:44:27;;;;;;;;;;;23.30;50.60;;;;;;1561382;75;603;-72
2021/07/14 01:46:30;;;;;;;;;;;23.30;50.60;;;;;;1557296;75;775;-73
2021/07/14 01:48:32;;;;;;;;;;;23.40;50.60;;;;;;1560657;75;1017;-72
2021/07/14 01:50:34;;;;;;;;;;;23.40;50.60;;;;;;1565549;75;693;-73
2021/07/14 01:52:36;;;;;;;;;;;23.30;50.60;;;;;;1561344;75;654;-72
2021/07/14 01:54:38;;;;;;;;;;;23.40;50.50;;;;;;1561582;75;748;-73
2021/07/14 01:56:40;;;;;;;;;;;23.30;50.60;;;;;;1526425;76;1939;-72
2021/07/14 01:58:42;;;;;;;;;;;23.30;50.60;;;;;;1566144;75;722;-73
2021/07/14 02:00:44;;;;;;;;;;;23.30;50.60;;;;;;1561507;75;793;-74
2021/07/14 02:02:53;;;;;;;;;;;23.40;50.60;;;;;;1566782;75;748;-73
2021/07/14 02:04:53;;;;;;;;;;;23.40;50.60;;;;;;1558708;75;1159;-72
2021/07/14 02:06:55;;;;;;;;;;;23.30;50.60;;;;;;1552286;74;1140;-73
2021/07/14 02:08:57;;;;;;;;;;;23.40;50.60;;;;;;1565551;75;776;-72
2021/07/14 02:10:59;;;;;;;;;;;23.30;50.60;;;;;;1561617;75;685;-73
2021/07/14 02:13:00;;;;;;;;;;;23.40;50.50;;;;;;1561327;75;737;-72
2021/07/14 02:15:04;;;;;;;;;;;23.30;50.60;;;;;;1549522;75;709;-73
2021/07/14 02:17:07;;;;;;;;;;;23.30;50.60;;;;;;1560850;74;1934;-72
2021/07/14 02:19:09;;;;;;;;;;;23.40;50.60;;;;;;1561591;75;690;-72
2021/07/14 02:21:11;;;;;;;;;;;23.30;50.60;;;;;;1558756;75;715;-72
2021/07/14 02:23:13;;;;;;;;;;;23.30;50.50;;;;;;1558871;75;795;-72
2021/07/14 02:25:15;;;;;;;;;;;23.30;50.60;;;;;;1543184;75;749;-75
2021/07/14 02:27:17;;;;;;;;;;;23.40;50.60;;;;;;1567247;74;1123;-72
2021/07/14 02:29:19;;;;;;;;;;;23.30;50.60;;;;;;1565182;75;728;-72
2021/07/14 02:31:21;;;;;;;;;;;23.30;50.60;;;;;;1566898;75;776;-72
2021/07/14 02:33:23;;;;;;;;;;;23.30;50.60;;;;;;1563507;75;689;-73
2021/07/14 02:35:25;;;;;;;;;;;23.40;50.60;;;;;;1556283;75;663;-73
2021/07/14 02:37:31;;;;;;;;;;;23.30;50.60;;;;;;1566065;74;1934;-72
2021/07/14 02:39:33;;;;;;;;;;;23.40;50.60;;;;;;1552231;75;1025;-72
2021/07/14 02:41:41;;;;;;;;;;;23.30;50.60;;;;;;1560787;75;602;-73
2021/07/14 02:43:44;;;;;;;;;;;23.30;50.50;;;;;;1555780;75;694;-72
2021/07/14 02:45:47;;;;;;;;;;;23.40;50.60;;;;;;1565130;75;726;-72
2021/07/14 02:47:49;;;;;;;;;;;23.30;50.60;;;;;;1561580;74;1120;-71
2021/07/14 02:49:51;;;;;;;;;;;23.30;50.60;;;;;;1565637;75;712;-71
2021/07/14 02:51:52;;;;;;;;;;;23.30;50.60;;;;;;1561494;75;710;-72
2021/07/14 02:53:54;;;;;;;;;;;23.30;50.60;;;;;;1560736;75;753;-73
2021/07/14 02:55:58;;;;;;;;;;;23.40;50.60;;;;;;1563252;75;739;-73
2021/07/14 02:58:00;;;;;;;;;;;23.20;50.50;;;;;;1563340;74;1920;-72
2021/07/14 03:00:03;;;;;;;;;;;23.40;50.60;;;;;;1570255;75;763;-72
2021/07/14 03:02:06;;;;;;;;;;;23.30;50.50;;;;;;1557409;75;718;-71
2021/07/14 03:04:08;;;;;;;;;;;23.20;50.50;;;;;;1563124;75;713;-71
2021/07/14 03:06:09;;;;;;;;;;;23.30;50.60;;;;;;1559832;74;776;-73
2021/07/14 03:08:14;;;;;;;;;;;23.30;50.60;;;;;;1561520;74;1112;-73
2021/07/14 03:10:20;;;;;;;;;;;23.40;50.60;;;;;;1550910;75;695;-72
2021/07/14 03:12:22;;;;;;;;;;;23.30;50.50;;;;;;1551339;75;676;-72
2021/07/14 03:14:24;;;;;;;;;;;23.30;50.50;;;;;;1567279;75;824;-75
2021/07/14 03:16:26;;;;;;;;;;;23.40;50.50;;;;;;1557474;75;748;-72
2021/07/14 03:18:28;;;;;;;;;;;23.30;50.50;;;;;;1561441;74;1942;-73
2021/07/14 03:20:30;;;;;;;;;;;23.30;50.50;;;;;;1557163;75;718;-73
2021/07/14 03:22:32;;;;;;;;;;;23.30;50.50;;;;;;1543867;75;721;-73
2021/07/14 03:24:34;;;;;;;;;;;23.30;50.60;;;;;;1567733;75;777;-72
2021/07/14 03:26:37;;;;;;;;;;;23.30;50.50;;;;;;1552839;75;1180;-71
2021/07/14 03:28:40;;;;;;;;;;;23.20;50.50;;;;;;1561514;75;736;-72
2021/07/14 03:30:42;;;;;;;;;;;23.30;50.60;;;;;;1564221;75;699;-73
2021/07/14 03:32:44;;;;;;;;;;;23.30;50.60;;;;;;1564988;75;735;-72
2021/07/14 03:34:45;;;;;;;;;;;23.20;50.50;;;;;;1560124;75;657;-72
2021/07/14 03:36:48;;;;;;;;;;;23.30;50.50;;;;;;1561699;74;1160;-72
2021/07/14 03:38:52;;;;;;;;;;;23.30;50.50;;;;;;1561576;75;1903;-72
2021/07/14 03:40:54;;;;;;;;;;;23.30;50.60;;;;;;1549059;75;731;-72
2021/07/14 03:42:56;;;;;;;;;;;23.30;50.60;;;;;;1563039;75;812;-72
2021/07/14 03:44:58;;;;;;;;;;;23.30;50.50;;;;;;1561644;75;721;-72
2021/07/14 03:47:00;;;;;;;;;;;23.30;50.60;;;;;;1570589;74;1219;-72
2021/07/14 03:49:02;;;;;;;;;;;23.30;50.60;;;;;;1555947;75;771;-72
2021/07/14 03:51:04;;;;;;;;;;;23.20;50.50;;;;;;1561597;75;638;-72
2021/07/14 03:53:06;;;;;;;;;;;23.30;50.60;;;;;;1559886;75;703;-72
2021/07/14 03:55:10;;;;;;;;;;;23.20;50.50;;;;;;1561659;75;705;-72
2021/07/14 03:57:12;;;;;;;;;;;23.30;50.50;;;;;;1558757;75;1927;-72
2021/07/14 03:59:14;;;;;;;;;;;23.30;50.50;;;;;;1568144;74;594;-73
2021/07/14 04:01:17;;;;;;;;;;;23.30;50.60;;;;;;1554744;75;723;-74
2021/07/14 04:03:25;;;;;;;;;;;23.30;50.60;;;;;;1561465;75;694;-72
2021/07/14 04:05:26;;;;;;;;;;;23.30;50.50;;;;;;1559797;75;1563;-74
2021/07/14 04:07:28;;;;;;;;;;;23.30;50.50;;;;;;1557484;74;1131;-74
2021/07/14 04:09:30;;;;;;;;;;;23.30;50.50;;;;;;1561566;75;775;-74
2021/07/14 04:11:32;;;;;;;;;;;23.30;50.60;;;;;;1568608;75;754;-72
2021/07/14 04:13:34;;;;;;;;;;;23.30;50.50;;;;;;1561504;75;739;-72
2021/07/14 04:15:36;;;;;;;;;;;23.30;50.50;;;;;;1554271;75;770;-72
2021/07/14 04:17:38;;;;;;;;;;;23.30;50.50;;;;;;1545833;74;1935;-72
2021/07/14 04:19:40;;;;;;;;;;;23.30;50.50;;;;;;1561551;75;721;-73
2021/07/14 04:21:42;;;;;;;;;;;23.30;50.50;;;;;;1561501;75;695;-72
2021/07/14 04:23:44;;;;;;;;;;;23.40;50.50;;;;;;1564281;75;707;-72
2021/07/14 04:25:46;;;;;;;;;;;23.30;50.50;;;;;;1558238;75;651;-73
2021/07/14 04:27:47;;;;;;;;;;;23.30;50.50;;;;;;1566164;74;1156;-73
2021/07/14 04:29:49;;;;;;;;;;;23.30;50.50;;;;;;1561522;75;694;-72
2021/07/14 04:31:51;;;;;;;;;;;23.30;50.50;;;;;;1561495;75;777;-73
2021/07/14 04:33:53;;;;;;;;;;;23.30;50.50;;;;;;1565106;75;718;-72
2021/07/14 04:35:55;;;;;;;;;;;23.30;50.50;;;;;;1549992;75;716;-73
2021/07/14 04:37:57;;;;;;;;;;;23.20;50.50;;;;;;1561596;74;1955;-73
2021/07/14 04:39:59;;;;;;;;;;;23.30;50.50;;;;;;1569078;75;724;-73
2021/07/14 04:42:01;;;;;;;;;;;23.30;50.50;;;;;;1561525;75;611;-73
2021/07/14 04:44:04;;;;;;;;;;;23.30;50.50;;;;;;1561588;75;742;-73
2021/07/14 04:46:06;;;;;;;;;;;23.30;50.50;;;;;;1557858;75;701;-72
2021/07/14 04:48:08;;;;;;;;;;;23.30;50.50;;;;;;1561637;74;1100;-74
2021/07/14 04:50:10;;;;;;;;;;;23.30;50.50;;;;;;1561542;75;693;-72
2021/07/14 04:52:12;;;;;;;;;;;23.30;50.50;;;;;;1570478;75;721;-72
2021/07/14 04:54:14;;;;;;;;;;;23.30;50.60;;;;;;1561564;75;767;-72
2021/07/14 04:56:18;;;;;;;;;;;23.30;50.50;;;;;;1558068;75;658;-72
2021/07/14 04:58:20;;;;;;;;;;;23.30;50.50;;;;;;1561506;74;1935;-72
2021/07/14 05:00:22;;;;;;;;;;;23.30;50.50;;;;;;1561535;75;698;-73
2021/07/14 05:02:24;;;;;;;;;;;23.30;50.50;;;;;;1571937;75;688;-73
2021/07/14 05:04:26;;;;;;;;;;;23.30;50.50;;;;;;1557462;75;797;-73
2021/07/14 05:06:28;;;;;;;;;;;23.30;50.50;;;;;;1561593;75;720;-75
2021/07/14 05:08:30;;;;;;;;;;;23.30;50.50;;;;;;1561344;75;1082;-72
2021/07/14 05:10:32;;;;;;;;;;;23.20;50.50;;;;;;1561681;75;777;-72
2021/07/14 05:12:34;;;;;;;;;;;23.30;50.50;;;;;;1557495;75;711;-72
2021/07/14 05:14:36;;;;;;;;;;;23.20;50.40;;;;;;1564200;75;757;-72
2021/07/14 05:16:38;;;;;;;;;;;23.30;50.50;;;;;;1561572;75;1189;-71
2021/07/14 05:18:40;;;;;;;;;;;23.20;50.40;;;;;;1566130;75;1924;-72
2021/07/14 05:20:41;;;;;;;;;;;23.20;50.40;;;;;;1561602;75;698;-72
2021/07/14 05:22:44;;;;;;;;;;;23.30;50.50;;;;;;1554230;75;656;-73
2021/07/14 05:24:46;;;;;;;;;;;23.30;50.50;;;;;;1561512;75;760;-74
2021/07/14 05:26:48;;;;;;;;;;;23.30;50.50;;;;;;1564116;75;1139;-73
2021/07/14 05:28:49;;;;;;;;;;;23.30;50.50;;;;;;1561531;75;698;-72
2021/07/14 05:30:52;;;;;;;;;;;23.30;50.50;;;;;;1564167;75;784;-74
2021/07/14 05:32:54;;;;;;;;;;;23.30;50.50;;;;;;1555262;75;761;-73
2021/07/14 05:34:55;;;;;;;;;;;23.30;50.50;;;;;;1561448;75;686;-72
2021/07/14 05:36:57;;;;;;;;;;;23.30;50.50;;;;;;1561490;74;1152;-73
2021/07/14 05:38:59;;;;;;;;;;;23.30;50.50;;;;;;1561472;75;1932;-73
2021/07/14 05:41:02;;;;;;;;;;;23.20;50.40;;;;;;1555805;75;775;-73
2021/07/14 05:43:04;;;;;;;;;;;23.20;50.50;;;;;;1561368;75;708;-72
2021/07/14 05:45:06;;;;;;;;;;;23.20;50.50;;;;;;1571923;75;741;-72
2021/07/14 05:47:08;;;;;;;;;;;23.20;50.40;;;;;;1556900;74;1163;-72
2021/07/14 05:49:10;;;;;;;;;;;23.30;50.50;;;;;;1558951;75;906;-72
2021/07/14 05:51:12;;;;;;;;;;;23.30;50.50;;;;;;1546136;75;712;-73
2021/07/14 05:53:14;;;;;;;;;;;23.30;50.50;;;;;;1561470;75;728;-72
2021/07/14 05:55:16;;;;;;;;;;;23.20;50.40;;;;;;1549438;75;716;-72
2021/07/14 05:57:17;;;;;;;;;;;23.20;50.40;;;;;;1561587;74;1156;-72
2021/07/14 05:59:19;;;;;;;;;;;23.20;50.50;;;;;;1541274;75;1947;-73
2021/07/14 06:01:21;;;;;;;;;;;23.20;50.40;;;;;;1563872;75;695;-73
2021/07/14 06:03:23;;;;;;;;;;;23.30;50.60;;;;;;1556773;74;688;-72
2021/07/14 06:05:25;;;;;;;;;;;23.30;50.50;;;;;;1561530;75;750;-70
2021/07/14 06:07:27;;;;;;;;;;;23.20;50.50;;;;;;1561497;75;1140;-72
2021/07/14 06:09:29;;;;;;;;;;;23.30;50.50;;;;;;1563747;75;727;-72
2021/07/14 06:11:31;;;;;;;;;;;23.30;50.50;;;;;;1559113;75;761;-72
2021/07/14 06:13:33;;;;;;;;;;;23.20;50.50;;;;;;1562043;75;748;-73
2021/07/14 06:15:35;;;;;;;;;;;23.20;50.50;;;;;;1561413;75;647;-72
2021/07/14 06:17:37;;;;;;;;;;;23.20;50.50;;;;;;1561500;75;1151;-72
2021/07/14 06:19:39;;;;;;;;;;;23.20;50.50;;;;;;1555149;75;1938;-72
2021/07/14 06:21:40;;;;;;;;;;;23.30;50.50;;;;;;1561504;75;718;-73
2021/07/14 06:23:42;;;;;;;;;;;23.20;50.50;;;;;;1561439;75;689;-72
2021/07/14 06:25:44;;;;;;;;;;;23.30;50.50;;;;;;1564645;75;697;-71
2021/07/14 06:27:46;;;;;;;;;;;23.20;50.50;;;;;;1555140;75;1130;-71
2021/07/14 06:29:48;;;;;;;;;;;23.20;50.50;;;;;;1551813;75;746;-72
2021/07/14 06:31:50;;;;;;;;;;;23.30;50.50;;;;;;1564871;75;710;-72
2021/07/14 06:33:52;;;;;;;;;;;23.30;50.50;;;;;;1561441;75;674;-72
2021/07/14 06:35:54;;;;;;;;;;;23.20;50.50;;;;;;1561447;75;712;-72
2021/07/14 06:37:56;;;;;;;;;;;23.20;50.40;;;;;;1560275;74;1230;-73
2021/07/14 06:39:58;;;;;;;;;;;23.30;50.50;;;;;;1568815;75;1939;-73
2021/07/14 06:42:00;;;;;;;;;;;23.20;50.40;;;;;;1561553;75;574;-72
2021/07/14 06:44:02;;;;;;;;;;;23.20;50.40;;;;;;1561530;75;703;-74
2021/07/14 06:46:04;;;;;;;;;;;23.20;50.40;;;;;;1563224;75;745;-72
2021/07/14 06:48:06;;;;;;;;;;;23.20;50.40;;;;;;1551006;74;1134;-72
2021/07/14 06:50:12;;;;;;;;;;;23.20;50.50;;;;;;1561593;75;774;-72
2021/07/14 06:52:14;;;;;;;;;;;23.20;50.40;;;;;;1570903;75;793;-72
2021/07/14 06:54:15;;;;;;;;;;;23.20;50.50;;;;;;1567391;75;1012;-73
2021/07/14 06:56:17;;;;;;;;;;;23.20;50.40;;;;;;1539981;75;708;-72
2021/07/14 06:58:19;;;;;;;;;;;23.30;50.50;;;;;;1561766;74;1947;-74
2021/07/14 07:00:21;;;;;;;;;;;23.20;50.40;;;;;;1561663;75;783;-73
2021/07/14 07:02:23;;;;;;;;;;;23.20;50.40;;;;;;1572212;75;730;-72
2021/07/14 07:04:25;;;;;;;;;;;23.30;50.50;;;;;;1561603;75;710;-71
2021/07/14 07:06:28;;;;;;;;;;;23.20;50.50;;;;;;1536247;75;719;-72
2021/07/14 07:08:30;;;;;;;;;;;23.20;50.50;;;;;;1556597;73;226367;-69
2021/07/14 07:10:32;;;;;;;;;;;23.30;50.60;;;;;;1559288;75;734;-69
2021/07/14 07:12:34;;;;;;;;;;;23.20;50.40;;;;;;1564870;75;736;-70
2021/07/14 07:14:36;;;;;;;;;;;23.20;50.40;;;;;;1570753;75;780;-69
2021/07/14 07:16:38;;;;;;;;;;;23.20;50.40;;;;;;1560909;75;781;-69
2021/07/14 07:18:40;;;;;;;;;;;23.30;50.50;;;;;;1557222;75;1971;-69
2021/07/14 07:20:41;;;;;;;;;;;23.20;50.50;;;;;;1539967;76;721;-69
2021/07/14 07:22:44;;;;;;;;;;;23.30;50.50;;;;;;1536065;77;727;-69
2021/07/14 07:24:46;;;;;;;;;;;23.20;50.50;;;;;;1531055;77;758;-69
2021/07/14 07:26:48;;;;;;;;;;;23.20;50.40;;;;;;1541680;77;783;-69
2021/07/14 07:28:57;;;;;;;;;;;23.20;50.40;;;;;;1534030;77;1058;-69
2021/07/14 07:30:53;;;;;;;;;;;23.20;50.40;;;;;;1535720;76;1703;-70
2021/07/14 07:32:55;;;;;;;;;;;23.30;50.50;;;;;;1539167;77;734;-69
2021/07/14 07:34:57;;;;;;;;;;;23.30;50.50;;;;;;1531094;77;794;-69
2021/07/14 07:37:00;;;;;;;;;;;23.30;50.50;;;;;;1545332;77;801;-69
2021/07/14 07:39:02;;;;;;;;;;;23.20;50.40;;;;;;1546098;77;1935;-69
2021/07/14 07:41:05;;;;;;;;;;;23.20;50.40;;;;;;1543574;77;793;-69
2021/07/14 07:43:07;;;;;;;;;;;23.20;50.50;;;;;;1539434;77;716;-69
2021/07/14 07:45:09;;;;;;;;;;;23.20;50.50;;;;;;1538032;77;834;-69
2021/07/14 07:47:14;;;;;;;;;;;23.20;50.40;;;;;;1533532;77;726;-69
2021/07/14 07:49:15;;;;;;;;;;;23.30;50.50;;;;;;1545934;76;1151;-69
2021/07/14 07:51:17;;;;;;;;;;;23.20;50.40;;;;;;1549564;77;688;-69
2021/07/14 07:53:19;;;;;;;;;;;23.10;50.50;;;;;;1546106;77;760;-69
2021/07/14 07:55:21;;;;;;;;;;;23.20;50.40;;;;;;1547449;77;766;-69
2021/07/14 07:57:23;;;;;;;;;;;23.30;50.50;;;;;;1545432;77;891;-69
2021/07/14 07:59:25;;;;;;;;;;;23.20;50.50;;;;;;1549322;77;1913;-69
2021/07/14 08:01:27;;;;;;;;;;;23.30;50.50;;;;;;1543983;77;788;-70
2021/07/14 08:03:29;;;;;;;;;;;23.20;50.50;;;;;;1532837;77;737;-69
2021/07/14 08:05:31;;;;;;;;;;;23.20;50.40;;;;;;1544295;77;794;-69
2021/07/14 08:07:33;;;;;;;;;;;23.20;50.40;;;;;;1546187;77;728;-69
2021/07/14 08:09:37;;;;;;;;;;;23.20;50.50;;;;;;1545272;77;1113;-69
2021/07/14 08:11:38;;;;;;;;;;;23.20;50.50;;;;;;1540622;76;1680;-69
2021/07/14 08:13:40;;;;;;;;;;;23.30;50.50;;;;;;1529612;77;746;-69
2021/07/14 08:15:43;;;;;;;;;;;23.40;50.60;;;;;;1546295;77;797;-70
2021/07/14 08:17:45;;;;;;;;;;;23.30;50.50;;;;;;1547061;77;800;-69
2021/07/14 08:19:47;;;;;;;;;;;23.20;50.40;;;;;;1532570;77;1917;-69
2021/07/14 08:21:49;;;;;;;;;;;23.30;50.50;;;;;;1519103;77;663;-69
2021/07/14 08:23:51;;;;;;;;;;;23.30;50.50;;;;;;1548099;76;733;-69
2021/07/14 08:25:53;;;;;;;;;;;23.30;50.50;;;;;;1546207;76;669;-69
2021/07/14 08:27:55;;;;;;;;;;;23.20;50.40;;;;;;1546141;77;1108;-69
2021/07/14 08:30:04;;;;;;;;;;;23.30;50.50;;;;;;1523176;77;783;-70
2021/07/14 08:32:00;;;;;;;;;;;23.20;50.40;;;;;;1543768;75;1600;-68
2021/07/14 08:34:02;;;;;;;;;;;23.30;50.50;;;;;;1544049;77;727;-69
2021/07/14 08:36:04;;;;;;;;;;;23.20;50.40;;;;;;1549000;77;691;-69
2021/07/14 08:38:07;;;;;;;;;;;23.20;50.40;;;;;;1541717;76;1170;-69
2021/07/14 08:40:09;;;;;;;;;;;23.20;50.50;;;;;;1529264;77;1946;-69
2021/07/14 08:42:11;;;;;;;;;;;23.20;50.40;;;;;;1546013;77;769;-69
2021/07/14 08:44:13;;;;;;;;;;;23.20;50.40;;;;;;1546235;77;648;-69
2021/07/14 08:46:15;;;;;;;;;;;23.20;50.40;;;;;;1543676;77;766;-69
2021/07/14 08:48:17;;;;;;;;;;;23.30;50.50;;;;;;1541014;77;1154;-69
2021/07/14 08:50:20;;;;;;;;;;;23.20;50.40;;;;;;1546396;77;759;-69
2021/07/14 08:52:22;;;;;;;;;;;23.20;50.40;;;;;;1546018;77;727;-69
2021/07/14 08:54:24;;;;;;;;;;;23.30;50.50;;;;;;1546652;77;798;-69
2021/07/14 08:56:25;;;;;;;;;;;23.20;50.40;;;;;;1545898;77;776;-69
2021/07/14 08:58:27;;;;;;;;;;;23.30;50.50;;;;;;1528889;77;1134;-69
2021/07/14 09:00:31;;;;;;;;;;;23.40;50.50;;;;;;1545734;76;1929;-69
2021/07/14 09:02:33;;;;;;;;;;;23.30;50.50;;;;;;1545715;77;834;-70
2021/07/14 09:04:35;;;;;;;;;;;23.30;50.50;;;;;;1546157;77;725;-69
2021/07/14 09:06:37;;;;;;;;;;;23.30;50.50;;;;;;1546239;77;726;-69
2021/07/14 09:08:39;;;;;;;;;;;23.30;50.50;;;;;;1544338;77;1091;-69
2021/07/14 09:10:41;;;;;;;;;;;23.30;50.50;;;;;;1545665;76;776;-69
2021/07/14 09:12:45;;;;;;;;;;;23.20;50.30;;;;;;1544535;77;730;-69
2021/07/14 09:14:47;;;;;;;;;;;23.30;50.50;;;;;;1537619;77;770;-69
2021/07/14 09:16:48;;;;;;;;;;;23.20;50.30;;;;;;1507651;78;818;-69
2021/07/14 09:18:50;;;;;;;;;;;23.30;50.40;;;;;;1534221;76;1141;-70
2021/07/14 09:20:52;;;;;;;;;;;23.30;50.50;;;;;;1536606;77;1999;-70
2021/07/14 09:23:04;;;;;;;;;;;23.40;50.50;;;;;;1544419;77;755;-69
2021/07/14 09:25:10;;;;;;;;;;;23.30;50.40;;;;;;1543935;77;714;-69
2021/07/14 09:27:16;;;;;;;;;;;23.30;50.40;;;;;;1531289;77;1825;-69
2021/07/14 09:29:18;;;;;;;;;;;23.40;50.50;;;;;;1528163;77;1105;-69
2021/07/14 09:31:22;;;;;;;;;;;23.30;50.40;;;;;;1549195;77;793;-69
2021/07/14 09:33:23;;;;;;;;;;;23.30;50.50;;;;;;1545913;77;1759;-67
2021/07/14 09:35:29;;;;;;;;;;;23.40;50.40;;;;;;1547106;77;791;-69
2021/07/14 09:37:31;;;;;;;;;;;23.30;50.50;;;;;;1530052;77;747;-69
2021/07/14 09:39:34;;;;;;;;;;;23.30;50.50;;;;;;1536751;77;1927;-69
2021/07/14 09:41:36;;;;;;;;;;;23.40;50.50;;;;;;1534286;77;1670;-66
2021/07/14 09:43:39;;;;;;;;;;;23.30;50.50;;;;;;1539467;76;662;-69
2021/07/14 09:45:49;;;;;;;;;;;23.30;50.50;;;;;;1530932;77;570;-69
2021/07/14 09:47:47;;;;;;;;;;;23.40;50.50;;;;;;1536165;77;1580;-69
2021/07/14 09:49:49;;;;;;;;;;;23.30;50.50;;;;;;1539482;77;1227;-69
2021/07/14 09:51:53;;;;;;;;;;;23.20;50.40;;;;;;1540792;77;705;-68
2021/07/14 09:53:55;;;;;;;;;;;23.30;50.40;;;;;;1531163;77;776;-69
2021/07/14 09:56:01;;;;;;;;;;;23.30;50.40;;;;;;1524764;77;735;-69
2021/07/14 09:58:10;;;;;;;;;;;23.30;50.50;;;;;;1534726;77;1142;-67
2021/07/14 10:00:18;;;;;;;;;;;23.30;50.40;;;;;;1539596;77;1905;-69
2021/07/14 10:02:20;;;;;;;;;;;23.20;50.40;;;;;;1514804;77;674;-69
2021/07/14 10:04:24;;;;;;;;;;;23.20;50.40;;;;;;1538646;77;794;-69
2021/07/14 10:06:26;;;;;;;;;;;23.30;50.40;;;;;;1530355;77;843;-69
2021/07/14 10:08:28;;;;;;;;;;;23.30;50.50;;;;;;1536846;77;1150;-69
2021/07/14 10:10:30;;;;;;;;;;;23.40;50.40;;;;;;1542305;76;774;-69
2021/07/14 10:12:32;;;;;;;;;;;23.30;50.40;;;;;;1539028;77;780;-70
2021/07/14 10:14:34;;;;;;;;;;;23.30;50.40;;;;;;1519956;77;748;-69
2021/07/14 10:16:40;;;;;;;;;;;23.40;50.40;;;;;;1541377;77;807;-69
2021/07/14 10:18:43;;;;;;;;;;;23.40;50.40;;;;;;1540606;76;1474;-70
2021/07/14 10:20:45;;;;;;;;;;;23.30;50.40;;;;;;1547044;76;1919;-69
2021/07/14 10:22:52;;;;;;;;;;;23.30;50.40;;;;;;1540072;77;771;-69
2021/07/14 10:24:54;;;;;;;;;;;23.30;50.40;;;;;;1547361;77;1016;-69
2021/07/14 10:26:56;;;;;;;;;;;23.30;50.40;;;;;;1546254;77;934;-69
2021/07/14 10:28:58;;;;;;;;;;;23.30;50.40;;;;;;1549492;77;1121;-68
2021/07/14 10:31:00;;;;;;;;;;;23.40;50.40;;;;;;1545482;77;832;-69
2021/07/14 10:33:01;;;;;;;;;;;23.40;50.40;;;;;;1534003;77;770;-69
2021/07/14 10:35:04;;;;;;;;;;;23.30;50.40;;;;;;1546025;77;821;-69
2021/07/14 10:37:06;;;;;;;;;;;23.30;50.40;;;;;;1546248;77;773;-69
2021/07/14 10:39:09;;;;;;;;;;;23.30;50.40;;;;;;1543376;77;1182;-70
2021/07/14 10:41:11;;;;;;;;;;;23.40;50.40;;;;;;1525023;76;1927;-69
2021/07/14 10:43:14;;;;;;;;;;;23.30;50.50;;;;;;1544090;77;742;-69
2021/07/14 10:45:16;;;;;;;;;;;23.30;50.40;;;;;;1548201;77;801;-70
2021/07/14 10:47:18;;;;;;;;;;;23.30;50.40;;;;;;1546199;77;825;-70
2021/07/14 10:49:20;;;;;;;;;;;23.30;50.40;;;;;;1543493;75;1151;-70
2021/07/14 10:51:22;;;;;;;;;;;23.30;50.40;;;;;;1527668;77;735;-68
2021/07/14 10:53:24;;;;;;;;;;;23.30;50.40;;;;;;1544642;76;787;-67
2021/07/14 10:55:26;;;;;;;;;;;23.30;50.40;;;;;;1546296;77;816;-70
2021/07/14 10:57:28;;;;;;;;;;;23.40;50.50;;;;;;1546567;77;707;-69
2021/07/14 10:59:30;;;;;;;;;;;23.30;50.40;;;;;;1546108;77;1095;-69
2021/07/14 11:01:40;;;;;;;;;;;23.30;50.40;;;;;;1539916;75;1917;-69
2021/07/14 11:03:45;;;;;;;;;;;23.30;50.40;;;;;;1544923;76;818;-69
2021/07/14 11:05:47;;;;;;;;;;;23.30;50.40;;;;;;1534208;76;854;-69
2021/07/14 11:07:50;;;;;;;;;;;23.30;50.40;;;;;;1538718;77;689;-70
2021/07/14 11:09:52;;;;;;;;;;;23.30;50.40;;;;;;1522318;77;713;-69
2021/07/14 11:11:57;;;;;;;;;;;23.30;50.40;;;;;;1537251;77;794;-69
2021/07/14 11:14:06;;;;;;;;;;;23.30;50.30;;;;;;1540598;77;795;-69
2021/07/14 11:16:24;;;;;;;;;;;23.30;50.30;;;;;;1548349;77;702;-70
2021/07/14 11:18:28;;;;;;;;;;;23.30;50.40;;;;;;1520670;77;1123;-69
2021/07/14 11:20:37;;;;;;;;;;;23.30;50.30;;;;;;1539817;77;1923;-69
2021/07/14 11:22:45;;;;;;;;;;;23.30;50.40;;;;;;1544174;77;796;-68
2021/07/14 11:24:51;;;;;;;;;;;23.30;50.40;;;;;;1546109;77;993;-69
2021/07/14 11:26:52;;;;;;;;;;;23.30;50.40;;;;;;1537446;77;1474;-70
2021/07/14 11:29:05;;;;;;;;;;;23.30;50.40;;;;;;1532250;77;1138;-69
2021/07/14 11:31:10;;;;;;;;;;;23.30;50.50;;;;;;1527523;77;1718;-69
2021/07/14 11:33:13;;;;;;;;;;;23.30;50.40;;;;;;1546362;77;807;-69
2021/07/14 11:35:23;;;;;;;;;;;23.30;50.40;;;;;;1536084;77;1038;-70
2021/07/14 11:37:26;;;;;;;;;;;23.40;50.40;;;;;;1548129;76;774;-70
2021/07/14 11:39:29;;;;;;;;;;;23.30;50.40;;;;;;1538751;76;2007;-69
2021/07/14 11:41:32;;;;;;;;;;;23.30;50.30;;;;;;1546103;77;1907;-69
2021/07/14 11:43:35;;;;;;;;;;;23.40;50.30;;;;;;1520137;77;1442;-69
2021/07/14 11:45:38;;;;;;;;;;;23.40;50.30;;;;;;1542661;77;986;-69
2021/07/14 11:47:39;;;;;;;;;;;23.30;50.30;;;;;;1535960;77;719;-70
2021/07/14 11:49:42;;;;;;;;;;;23.30;50.40;;;;;;1547479;77;1126;-69
2021/07/14 11:51:44;;;;;;;;;;;23.40;50.30;;;;;;1544807;77;781;-70
2021/07/14 11:53:55;;;;;;;;;;;23.30;50.30;;;;;;1546051;77;890;-70
2021/07/14 11:56:07;;;;;;;;;;;23.40;50.30;;;;;;1536072;77;717;-69
2021/07/14 11:58:09;;;;;;;;;;;23.30;50.30;;;;;;1541600;77;1142;-68
2021/07/14 12:00:11;;;;;;;;;;;23.30;50.40;;;;;;1546144;77;1955;-67
2021/07/14 12:02:20;;;;;;;;;;;23.30;50.30;;;;;;1546756;77;703;-69
2021/07/14 12:04:23;;;;;;;;;;;23.30;50.40;;;;;;1526642;77;787;-69
2021/07/14 12:06:43;;;;;;;;;;;23.30;50.30;;;;;;1515916;76;779;-69
2021/07/14 12:08:47;;;;;;;;;;;23.40;50.30;;;;;;1546770;77;1118;-69
2021/07/14 12:10:50;;;;;;;;;;;23.30;50.30;;;;;;1548553;77;2076;-69
2021/07/14 12:12:52;;;;;;;;;;;23.30;50.40;;;;;;1546471;77;1857;-69
2021/07/14 12:14:54;;;;;;;;;;;23.30;50.40;;;;;;1533023;77;805;-69
2021/07/14 12:17:03;;;;;;;;;;;23.30;50.40;;;;;;1540232;77;685;-69
2021/07/14 12:19:05;;;;;;;;;;;23.30;50.40;;;;;;1544694;77;1197;-69